Time;durP1;ratioP1;P1;durP2;ratioP2;P2;SDS_P1;SDS_P2;PMS_P1;PMS_P2;Temp;Humidity;BMP_temperature;BMP_pressure;BME280_temperature;BME280_humidity;BME280_pressure;Samples;Min_cycle;Max_cycle;Signal;HPM_P1;HPM_P2
2021/07/14 00:00:01;;;;;;;1.30;1.20;;;18.50;99.90;;;;;;5050754;28;20438;-78
2021/07/14 00:02:29;;;;;;;1.40;1.30;;;18.40;1.00;;;;;;5037083;28;20452;-80
2021/07/14 00:04:58;;;;;;;3.00;1.30;;;18.30;1.00;;;;;;5040911;28;20443;-79
2021/07/14 00:07:26;;;;;;;4.10;1.43;;;18.40;1.00;;;;;;5038490;28;21007;-80
2021/07/14 00:09:55;;;;;;;1.40;1.30;;;18.40;1.00;;;;;;5037628;28;20530;-78
2021/07/14 00:12:25;;;;;;;1.43;1.30;;;18.30;1.00;;;;;;5040089;28;20494;-78
2021/07/14 00:17:11;;;;;;;1.23;1.13;;;18.30;1.00;;;;;;5067065;28;20462;-78
2021/07/14 00:23:38;;;;;;;1.97;1.63;;;18.30;1.00;;;;;;5035113;28;20541;-79
2021/07/14 00:26:08;;;;;;;1.47;1.37;;;18.30;1.00;;;;;;5034552;28;20463;-79
2021/07/14 00:28:36;;;;;;;3.23;1.90;;;18.30;1.00;;;;;;5042203;28;20463;-78
2021/07/14 00:31:06;;;;;;;2.93;1.60;;;18.30;1.00;;;;;;5046357;28;20458;-78
2021/07/14 00:33:34;;;;;;;1.63;1.53;;;18.30;1.00;;;;;;5043407;28;20479;-78
2021/07/14 00:36:02;;;;;;;1.90;1.63;;;18.30;1.00;;;;;;5055425;28;20815;-80
2021/07/14 00:38:31;;;;;;;2.50;1.67;;;18.30;1.00;;;;;;5045311;28;20876;-80
2021/07/14 00:40:59;;;;;;;1.40;1.30;;;18.20;1.00;;;;;;5050221;28;20459;-79
2021/07/14 00:43:28;;;;;;;3.63;1.50;;;18.20;1.00;;;;;;5045157;28;20555;-78
2021/07/14 00:45:57;;;;;;;1.70;1.60;;;18.20;1.00;;;;;;5041559;28;20552;-78
2021/07/14 00:48:27;;;;;;;1.70;1.60;;;18.20;1.00;;;;;;5048640;28;20478;-80
2021/07/14 00:50:56;;;;;;;2.00;1.90;;;18.20;1.00;;;;;;5047263;28;20447;-79
2021/07/14 00:53:24;;;;;;;1.73;1.63;;;18.20;1.00;;;;;;5054944;28;20905;-78
2021/07/14 00:55:52;;;;;;;1.90;1.30;;;18.20;1.00;;;;;;5046515;28;20454;-79
2021/07/14 00:58:20;;;;;;;1.40;1.30;;;18.20;1.00;;;;;;5041017;28;20477;-79
2021/07/14 01:00:50;;;;;;;2.13;1.83;;;18.10;99.90;;;;;;5037691;28;22300;-79
2021/07/14 01:03:23;;;;;;;2.30;1.40;;;18.20;99.90;;;;;;5040638;28;20819;-78
2021/07/14 01:05:55;;;;;;;4.30;2.33;;;18.10;99.90;;;;;;5066791;28;21001;-79
2021/07/14 01:08:28;;;;;;;1.73;1.63;;;18.10;99.90;;;;;;5050597;28;20470;-79
2021/07/14 01:11:02;;;;;;;4.27;1.60;;;18.00;99.90;;;;;;5053427;28;20955;-79
2021/07/14 01:13:37;;;;;;;2.03;1.70;;;17.80;1.00;;;;;;5046764;28;20552;-79
2021/07/14 01:16:09;;;;;;;2.67;1.67;;;17.70;1.00;;;;;;5048845;28;20458;-78
2021/07/14 01:18:43;;;;;;;1.83;1.73;;;17.60;1.00;;;;;;5037884;28;20478;-79
2021/07/14 01:21:16;;;;;;;2.90;1.60;;;17.50;99.90;;;;;;5046885;28;20457;-78
2021/07/14 01:23:50;;;;;;;2.23;2.13;;;17.50;99.90;;;;;;5049089;28;20446;-79
2021/07/14 01:26:32;;;;;;;1.80;1.60;;;17.50;36.80;;;;;;5040938;28;20484;-80
2021/07/14 01:29:06;;;;;;;1.97;1.73;;;17.40;99.90;;;;;;5048057;28;20517;-79
2021/07/14 01:31:37;;;;;;;1.70;1.60;;;17.30;1.00;;;;;;5037725;28;20458;-80
2021/07/14 01:34:08;;;;;;;1.90;1.70;;;17.40;99.90;;;;;;5049204;28;20473;-79
2021/07/14 01:36:37;;;;;;;1.77;1.60;;;17.40;99.90;;;;;;5062571;28;20466;-78
2021/07/14 01:39:07;;;;;;;1.90;1.53;;;17.50;99.90;;;;;;5040236;28;20467;-79
2021/07/14 01:41:38;;;;;;;2.10;2.00;;;17.60;86.10;;;;;;5038583;28;20446;-77
2021/07/14 01:44:08;;;;;;;3.57;1.50;;;17.70;1.00;;;;;;5066809;28;20439;-79
2021/07/14 01:46:38;;;;;;;1.60;1.40;;;17.60;1.00;;;;;;5062097;28;20460;-79
2021/07/14 01:49:12;;;;;;;3.20;1.43;;;17.70;1.00;;;;;;5035322;28;20448;-80
2021/07/14 01:51:44;;;;;;;1.90;1.80;;;17.50;1.00;;;;;;5039092;28;20435;-78
2021/07/14 01:54:14;;;;;;;2.20;1.50;;;17.50;99.90;;;;;;5048751;28;20478;-77
2021/07/14 01:56:44;;;;;;;5.63;1.63;;;17.50;1.00;;;;;;5062210;28;20508;-79
2021/07/14 01:59:13;;;;;;;1.63;1.53;;;17.50;45.90;;;;;;5049545;28;20520;-78
2021/07/14 02:01:43;;;;;;;1.80;1.60;;;17.60;1.00;;;;;;5046721;28;20521;-78
2021/07/14 02:04:32;;;;;;;1.60;1.50;;;17.60;1.00;;;;;;5057673;28;20476;-79
2021/07/14 02:07:06;;;;;;;2.17;1.97;;;17.50;1.00;;;;;;5059043;28;21005;-77
2021/07/14 02:09:35;;;;;;;3.43;2.00;;;17.50;1.00;;;;;;5041396;28;20453;-80
2021/07/14 02:12:07;;;;;;;1.90;1.80;;;17.50;49.40;;;;;;5039270;28;20474;-79
2021/07/14 02:14:40;;;;;;;1.83;1.70;;;17.60;1.00;;;;;;5040721;28;20578;-77
2021/07/14 02:17:13;;;;;;;2.10;1.90;;;17.70;1.00;;;;;;5048306;28;21196;-79
2021/07/14 02:19:46;;;;;;;2.80;1.70;;;17.80;1.00;;;;;;5047792;28;20447;-79
2021/07/14 02:22:14;;;;;;;3.60;1.80;;;17.90;1.00;;;;;;5060989;28;20460;-78
2021/07/14 02:24:42;;;;;;;2.17;1.97;;;17.90;1.00;;;;;;5049088;28;20500;-80
2021/07/14 02:27:10;;;;;;;2.03;1.67;;;17.80;1.00;;;;;;5049231;28;20552;-79
2021/07/14 02:29:41;;;;;;;2.23;1.50;;;17.80;1.00;;;;;;5045891;28;20471;-80
2021/07/14 02:32:13;;;;;;;1.90;1.80;;;17.80;1.00;;;;;;5048529;28;20946;-78
2021/07/14 02:34:42;;;;;;;5.10;1.60;;;17.80;1.00;;;;;;5043450;28;20484;-80
2021/07/14 02:37:13;;;;;;;3.40;2.27;;;17.70;1.00;;;;;;5035553;28;21040;-80
2021/07/14 02:39:46;;;;;;;3.03;1.70;;;17.60;1.00;;;;;;5059329;28;20477;-78
2021/07/14 02:42:28;;;;;;;2.90;1.57;;;17.60;1.00;;;;;;5050625;28;20458;-80
2021/07/14 02:44:58;;;;;;;2.97;1.87;;;17.60;1.00;;;;;;5048984;28;20920;-78
2021/07/14 02:47:26;;;;;;;2.90;1.63;;;17.50;1.00;;;;;;5054985;28;21301;-79
2021/07/14 02:49:55;;;;;;;1.60;1.50;;;17.50;1.00;;;;;;5055319;28;20526;-80
2021/07/14 02:52:26;;;;;;;1.90;1.70;;;17.60;1.00;;;;;;5045200;28;20482;-79
2021/07/14 02:54:58;;;;;;;2.47;1.83;;;17.60;1.00;;;;;;5044475;28;20515;-78
2021/07/14 02:57:27;;;;;;;2.00;1.90;;;17.50;1.00;;;;;;5037098;28;20486;-78
2021/07/14 02:59:57;;;;;;;6.97;2.13;;;17.40;1.00;;;;;;5038017;28;20508;-79
2021/07/14 03:02:26;;;;;;;2.43;1.83;;;17.40;1.00;;;;;;5035534;28;20478;-79
2021/07/14 03:04:56;;;;;;;2.10;1.90;;;17.40;1.00;;;;;;5038275;28;20504;-80
2021/07/14 03:07:26;;;;;;;1.50;1.40;;;17.40;1.00;;;;;;5048368;28;20535;-80
2021/07/14 03:09:55;;;;;;;2.33;2.13;;;17.40;1.00;;;;;;5048486;28;20455;-79
2021/07/14 03:12:26;;;;;;;2.53;2.33;;;17.40;1.00;;;;;;5042271;28;20458;-80
2021/07/14 03:14:58;;;;;;;1.83;1.57;;;17.30;1.00;;;;;;5048348;28;20463;-79
2021/07/14 03:17:32;;;;;;;3.10;2.23;;;17.20;1.00;;;;;;5038820;28;21509;-78
2021/07/14 03:20:03;;;;;;;2.03;1.63;;;17.20;67.60;;;;;;5041934;28;20461;-80
2021/07/14 03:22:32;;;;;;;3.70;1.87;;;17.30;56.50;;;;;;5051506;28;20449;-79
2021/07/14 03:25:01;;;;;;;1.67;1.57;;;17.40;1.00;;;;;;5055960;28;20462;-79
2021/07/14 03:27:29;;;;;;;2.17;1.67;;;17.40;1.00;;;;;;5046475;28;20486;-76
2021/07/14 03:30:00;;;;;;;2.70;1.87;;;17.40;1.00;;;;;;5049864;28;20453;-78
2021/07/14 03:32:28;;;;;;;2.60;1.80;;;17.30;1.00;;;;;;5038120;28;20454;-79
2021/07/14 03:34:56;;;;;;;1.70;1.60;;;17.40;1.00;;;;;;5047334;28;20490;-79
2021/07/14 03:37:25;;;;;;;1.90;1.80;;;17.50;1.00;;;;;;5052485;28;20477;-79
2021/07/14 03:39:54;;;;;;;3.60;1.90;;;17.60;1.00;;;;;;5050322;28;20503;-79
2021/07/14 03:42:25;;;;;;;1.73;1.60;;;17.70;99.90;;;;;;5045807;28;20511;-80
2021/07/14 03:44:54;;;;;;;2.23;1.87;;;17.70;1.00;;;;;;5052797;28;20446;-80
2021/07/14 03:47:26;;;;;;;1.80;1.70;;;17.60;1.00;;;;;;5042393;28;20479;-81
2021/07/14 03:49:55;;;;;;;3.20;1.80;;;17.60;1.00;;;;;;5038538;28;20459;-79
2021/07/14 03:52:24;;;;;;;2.27;2.10;;;17.60;1.00;;;;;;5056338;28;20446;-81
2021/07/14 03:54:53;;;;;;;2.00;1.77;;;17.60;1.00;;;;;;5043756;28;20471;-80
2021/07/14 03:57:22;;;;;;;1.63;1.53;;;17.50;99.90;;;;;;5047338;28;20504;-80
2021/07/14 03:59:51;;;;;;;3.40;1.67;;;17.30;1.00;;;;;;5056303;28;20443;-78
2021/07/14 04:02:20;;;;;;;2.93;2.20;;;17.30;1.00;;;;;;5047292;28;20876;-79
2021/07/14 04:04:52;;;;;;;2.00;1.80;;;17.20;1.00;;;;;;5045837;28;20447;-80
2021/07/14 04:07:26;;;;;;;2.40;2.17;;;17.20;1.00;;;;;;5052266;28;20457;-80
2021/07/14 04:09:54;;;;;;;2.13;1.90;;;17.10;1.00;;;;;;5058628;28;20500;-79
2021/07/14 04:12:22;;;;;;;1.60;1.40;;;17.00;1.00;;;;;;5048514;28;20453;-79
2021/07/14 04:14:51;;;;;;;1.73;1.63;;;17.00;52.20;;;;;;5057165;28;20467;-79
2021/07/14 04:17:19;;;;;;;2.40;2.20;;;16.90;99.90;;;;;;5050544;28;20540;-80
2021/07/14 04:19:47;;;;;;;1.87;1.50;;;16.80;99.90;;;;;;5049145;28;20864;-79
2021/07/14 04:22:17;;;;;;;2.87;2.10;;;16.90;99.90;;;;;;5036935;28;21012;-80
2021/07/14 04:24:45;;;;;;;1.93;1.50;;;16.90;94.00;;;;;;5048989;28;20447;-79
2021/07/14 04:27:13;;;;;;;1.70;1.43;;;16.90;99.90;;;;;;5048706;28;20463;-80
2021/07/14 04:29:41;;;;;;;2.10;1.80;;;16.90;99.90;;;;;;5040417;28;20958;-78
2021/07/14 04:32:10;;;;;;;3.50;1.63;;;16.90;1.00;;;;;;5048016;28;20777;-79
2021/07/14 04:34:38;;;;;;;2.80;1.77;;;17.00;99.90;;;;;;5047996;28;20578;-79
2021/07/14 04:37:06;;;;;;;3.73;1.93;;;17.10;28.60;;;;;;5061028;28;20484;-79
2021/07/14 04:39:36;;;;;;;1.67;1.57;;;17.10;91.60;;;;;;5051794;28;20463;-80
2021/07/14 04:42:04;;;;;;;2.00;1.43;;;17.10;2.80;;;;;;5056126;28;20459;-79
2021/07/14 04:44:35;;;;;;;2.00;1.90;;;17.10;27.10;;;;;;5048416;28;20531;-79
2021/07/14 04:47:04;;;;;;;1.70;1.47;;;17.10;59.00;;;;;;5049780;28;20980;-79
2021/07/14 04:49:32;;;;;;;2.50;1.80;;;17.30;13.70;;;;;;5036751;28;20955;-80
2021/07/14 04:52:03;;;;;;;2.03;1.70;;;17.40;1.00;;;;;;5052955;28;20442;-79
2021/07/14 04:54:31;;;;;;;3.00;1.77;;;17.40;1.00;;;;;;5051896;28;20938;-82
2021/07/14 04:57:00;;;;;;;1.80;1.70;;;17.40;1.00;;;;;;5059599;28;21032;-79
2021/07/14 04:59:29;;;;;;;1.80;1.70;;;17.50;1.00;;;;;;5042643;28;20477;-80
2021/07/14 05:01:57;;;;;;;2.40;1.80;;;17.40;1.00;;;;;;5042821;28;20465;-80
2021/07/14 05:04:25;;;;;;;2.00;1.47;;;17.50;1.00;;;;;;5034590;28;20894;-79
2021/07/14 05:06:53;;;;;;;2.60;1.70;;;17.50;1.00;;;;;;5057664;28;20478;-84
2021/07/14 05:09:22;;;;;;;3.13;2.00;;;17.30;1.00;;;;;;5048158;28;20545;-81
2021/07/14 05:11:50;;;;;;;3.47;1.60;;;17.20;1.00;;;;;;5046374;28;21105;-80
2021/07/14 05:14:20;;;;;;;2.20;2.00;;;17.00;1.00;;;;;;5043459;28;20467;-82
2021/07/14 05:16:48;;;;;;;2.97;2.30;;;16.90;1.00;;;;;;5045619;28;20494;-78
2021/07/14 05:19:17;;;;;;;3.60;2.40;;;17.00;99.90;;;;;;5042012;28;20537;-78
2021/07/14 05:21:45;;;;;;;2.90;2.60;;;17.10;22.10;;;;;;5042925;28;20450;-78
2021/07/14 05:24:13;;;;;;;1.87;1.63;;;17.20;1.00;;;;;;5040461;28;20454;-80
2021/07/14 05:26:42;;;;;;;3.77;2.20;;;17.20;1.00;;;;;;5041690;28;20542;-78
2021/07/14 05:29:10;;;;;;;2.50;1.60;;;17.30;1.00;;;;;;5047283;28;20521;-78
2021/07/14 05:31:39;;;;;;;1.70;1.60;;;17.30;1.00;;;;;;5049745;28;20454;-78
2021/07/14 05:34:08;;;;;;;1.97;1.87;;;17.30;1.00;;;;;;5043198;28;20550;-78
2021/07/14 05:36:36;;;;;;;1.70;1.60;;;17.20;1.00;;;;;;5038654;28;20490;-77
2021/07/14 05:39:04;;;;;;;1.50;1.40;;;17.30;1.00;;;;;;5046323;28;20458;-79
2021/07/14 05:41:32;;;;;;;1.97;1.87;;;17.30;1.00;;;;;;5039887;28;20464;-79
2021/07/14 05:44:00;;;;;;;2.03;1.73;;;17.30;1.00;;;;;;5046526;28;20450;-79
2021/07/14 05:46:28;;;;;;;2.27;2.07;;;17.40;1.00;;;;;;5046326;28;20932;-79
2021/07/14 05:49:02;;;;;;;2.00;1.60;;;17.40;1.00;;;;;;5045964;28;20532;-79
2021/07/14 05:51:31;;;;;;;1.73;1.63;;;17.40;1.00;;;;;;5041565;28;20453;-78
2021/07/14 05:54:00;;;;;;;1.77;1.67;;;17.40;1.00;;;;;;5039143;28;20463;-77
2021/07/14 05:56:29;;;;;;;1.80;1.70;;;17.40;1.00;;;;;;5040916;28;20549;-78
2021/07/14 05:58:57;;;;;;;4.20;2.30;;;17.40;1.00;;;;;;5047064;28;20482;-80
2021/07/14 06:01:25;;;;;;;2.50;1.83;;;17.40;1.00;;;;;;5042167;28;20511;-79
2021/07/14 06:03:53;;;;;;;3.67;1.70;;;17.40;1.00;;;;;;5043431;28;20448;-79
2021/07/14 06:06:23;;;;;;;2.67;1.87;;;17.40;1.00;;;;;;5049966;28;20486;-77
2021/07/14 06:08:51;;;;;;;10.23;1.83;;;17.40;1.00;;;;;;5046441;28;20473;-79
2021/07/14 06:11:19;;;;;;;2.03;1.53;;;17.50;1.00;;;;;;5042600;28;20556;-78
2021/07/14 06:13:47;;;;;;;2.83;1.63;;;17.60;1.00;;;;;;5041801;28;20459;-79
2021/07/14 06:16:15;;;;;;;3.93;1.67;;;17.70;1.00;;;;;;5043609;28;20551;-79
2021/07/14 06:18:44;;;;;;;3.13;1.70;;;17.70;1.00;;;;;;5045326;28;20902;-78
2021/07/14 06:21:12;;;;;;;2.13;1.87;;;17.70;1.00;;;;;;5041486;28;20491;-78
2021/07/14 06:23:41;;;;;;;9.40;2.97;;;17.80;1.00;;;;;;5040062;28;20899;-78
2021/07/14 06:26:09;;;;;;;1.80;1.70;;;17.80;1.00;;;;;;5038994;28;20521;-78
2021/07/14 06:28:38;;;;;;;1.60;1.50;;;17.80;1.00;;;;;;5040410;28;20529;-80
2021/07/14 06:31:06;;;;;;;1.50;1.40;;;17.90;1.00;;;;;;5039720;28;20473;-80
2021/07/14 06:33:35;;;;;;;3.87;1.67;;;17.80;99.90;;;;;;5047537;28;20477;-79
2021/07/14 06:36:04;;;;;;;3.90;2.13;;;17.80;99.90;;;;;;5040174;28;20496;-79
2021/07/14 06:38:33;;;;;;;3.43;2.00;;;17.70;99.90;;;;;;5042161;28;21838;-79
2021/07/14 06:41:04;;;;;;;1.90;1.80;;;17.80;1.00;;;;;;5038292;28;20490;-78
2021/07/14 06:43:42;;;;;;;2.07;1.97;;;17.80;1.00;;;;;;5039755;28;20454;-79
2021/07/14 06:46:11;;;;;;;2.10;2.00;;;17.70;99.90;;;;;;5042927;28;20976;-77
2021/07/14 06:48:40;;;;;;;2.00;1.90;;;17.80;1.00;;;;;;5041710;28;21060;-78
2021/07/14 06:51:10;;;;;;;1.63;1.53;;;17.80;1.00;;;;;;5042575;28;20516;-78
2021/07/14 06:53:38;;;;;;;1.80;1.70;;;17.80;1.00;;;;;;5046636;28;20474;-78
2021/07/14 06:56:08;;;;;;;3.20;1.83;;;17.80;1.00;;;;;;5053481;28;20470;-79
2021/07/14 06:58:39;;;;;;;1.50;1.40;;;17.80;1.00;;;;;;5051447;28;21006;-78
2021/07/14 07:01:09;;;;;;;2.80;2.13;;;17.90;99.90;;;;;;5043342;28;20465;-78
2021/07/14 07:03:37;;;;;;;1.47;1.37;;;17.80;1.00;;;;;;5048988;28;20826;-79
2021/07/14 07:06:06;;;;;;;3.63;2.17;;;17.80;1.00;;;;;;5045949;28;20459;-78
2021/07/14 07:08:34;;;;;;;1.90;1.57;;;17.80;1.00;;;;;;5044478;28;20472;-78
2021/07/14 07:11:04;;;;;;;3.10;2.27;;;17.80;1.00;;;;;;5039199;28;20457;-79
2021/07/14 07:13:33;;;;;;;1.97;1.63;;;17.90;1.00;;;;;;5045331;28;20474;-78
2021/07/14 07:16:03;;;;;;;2.47;2.27;;;17.90;1.00;;;;;;5039567;28;20491;-80
2021/07/14 07:18:31;;;;;;;2.80;1.50;;;17.90;1.00;;;;;;5044898;28;20471;-79
2021/07/14 07:21:01;;;;;;;2.03;1.83;;;17.90;1.00;;;;;;5042168;28;20973;-79
2021/07/14 07:23:31;;;;;;;1.97;1.50;;;18.00;1.00;;;;;;5036175;28;20451;-79
2021/07/14 07:25:59;;;;;;;1.50;1.40;;;18.00;1.00;;;;;;5033464;28;20455;-79
2021/07/14 07:28:32;;;;;;;1.83;1.70;;;17.90;1.00;;;;;;5040069;28;20851;-79
2021/07/14 07:31:04;;;;;;;1.93;1.70;;;17.80;1.00;;;;;;5037478;28;20463;-79
2021/07/14 07:33:32;;;;;;;1.63;1.53;;;17.80;1.00;;;;;;5042463;28;20474;-79
2021/07/14 07:36:00;;;;;;;2.13;2.03;;;17.70;99.90;;;;;;5042397;28;20454;-78
2021/07/14 07:38:28;;;;;;;5.33;2.17;;;17.80;54.70;;;;;;5041861;28;20480;-79
2021/07/14 07:40:57;;;;;;;1.60;1.50;;;17.80;93.70;;;;;;5056225;28;20463;-78
2021/07/14 07:43:27;;;;;;;1.80;1.70;;;17.80;99.90;;;;;;5036678;28;20435;-79
2021/07/14 07:45:55;;;;;;;1.67;1.57;;;18.00;3.60;;;;;;5035793;28;20204;-79
2021/07/14 07:48:25;;;;;;;7.07;2.00;;;18.00;50.20;;;;;;5043565;28;20494;-78
2021/07/14 07:50:59;;;;;;;1.70;1.60;;;18.10;1.00;;;;;;5033474;28;20451;-78
2021/07/14 07:53:28;;;;;;;1.53;1.43;;;18.20;1.00;;;;;;5043105;28;20521;-79
2021/07/14 07:55:56;;;;;;;1.70;1.60;;;18.20;1.00;;;;;;5039774;28;20452;-78
2021/07/14 07:58:24;;;;;;;1.70;1.60;;;18.20;1.00;;;;;;5043998;28;20482;-78
2021/07/14 08:00:52;;;;;;;3.77;1.73;;;18.20;1.00;;;;;;5036683;28;20464;-78
2021/07/14 08:03:21;;;;;;;1.73;1.63;;;18.20;1.00;;;;;;5042310;28;20502;-78
2021/07/14 08:05:50;;;;;;;1.93;1.83;;;18.00;1.00;;;;;;5041063;28;20495;-77
2021/07/14 08:08:19;;;;;;;1.80;1.70;;;18.00;1.00;;;;;;5036032;28;20463;-79
2021/07/14 08:10:48;;;;;;;2.00;1.80;;;17.90;1.00;;;;;;5039440;28;20450;-79
2021/07/14 08:13:17;;;;;;;1.50;1.40;;;18.00;1.00;;;;;;5043196;28;20957;-78
2021/07/14 08:15:46;;;;;;;1.40;1.30;;;17.80;1.00;;;;;;5038449;28;20455;-79
2021/07/14 08:18:14;;;;;;;1.67;1.57;;;17.80;71.10;;;;;;5044908;28;20556;-78
2021/07/14 08:20:43;;;;;;;1.70;1.60;;;17.80;76.70;;;;;;5035338;28;20474;-78
2021/07/14 08:23:13;;;;;;;1.93;1.70;;;18.00;1.00;;;;;;5046541;28;20451;-79
2021/07/14 08:25:41;;;;;;;1.53;1.43;;;18.00;1.00;;;;;;5039071;28;20457;-77
2021/07/14 08:28:09;;;;;;;4.00;1.73;;;18.00;1.00;;;;;;5037228;28;20476;-80
2021/07/14 08:30:37;;;;;;;3.03;1.87;;;18.10;1.00;;;;;;5033546;28;20493;-80
2021/07/14 08:33:05;;;;;;;2.23;2.10;;;18.00;1.00;;;;;;5057395;28;20524;-79
2021/07/14 08:35:34;;;;;;;2.10;2.00;;;18.00;1.00;;;;;;5033582;28;21769;-80
2021/07/14 08:38:02;;;;;;;2.23;1.67;;;18.00;99.90;;;;;;5045884;28;20489;-80
2021/07/14 08:40:31;;;;;;;3.67;1.63;;;18.00;1.00;;;;;;5062063;28;20513;-81
2021/07/14 08:43:02;;;;;;;2.17;1.97;;;18.00;1.00;;;;;;5039964;28;21100;-78
2021/07/14 08:45:30;;;;;;;2.77;1.83;;;18.10;1.00;;;;;;5044815;28;20459;-80
2021/07/14 08:47:59;;;;;;;2.47;2.27;;;18.20;1.00;;;;;;5050219;28;20488;-79
2021/07/14 08:50:27;;;;;;;2.80;2.60;;;18.20;1.00;;;;;;5045203;28;20499;-78
2021/07/14 08:52:56;;;;;;;1.90;1.80;;;18.30;1.00;;;;;;5043321;28;20802;-77
2021/07/14 08:55:24;;;;;;;1.80;1.70;;;18.30;1.00;;;;;;5046156;28;20462;-79
2021/07/14 08:57:54;;;;;;;2.00;1.90;;;18.30;1.00;;;;;;5047319;28;20552;-78
2021/07/14 09:00:24;;;;;;;2.40;1.67;;;18.40;1.00;;;;;;5040810;28;20806;-78
2021/07/14 09:02:52;;;;;;;2.73;2.03;;;18.20;1.00;;;;;;5036361;28;20462;-79
2021/07/14 09:05:20;;;;;;;1.80;1.70;;;18.20;1.00;;;;;;5039178;28;20459;-78
2021/07/14 09:07:48;;;;;;;2.20;2.00;;;18.20;1.00;;;;;;5038299;28;21390;-77
2021/07/14 09:10:17;;;;;;;1.70;1.60;;;18.20;1.00;;;;;;5046002;28;20454;-78
2021/07/14 09:12:47;;;;;;;1.93;1.80;;;18.30;1.00;;;;;;5060340;28;22454;-78
2021/07/14 09:15:21;;;;;;;3.30;2.00;;;18.30;1.00;;;;;;5035883;28;20485;-79
2021/07/14 09:17:51;;;;;;;2.00;1.80;;;18.40;1.00;;;;;;5042687;28;20496;-78
2021/07/14 09:20:22;;;;;;;2.47;2.27;;;18.30;1.00;;;;;;5041183;28;20989;-79
2021/07/14 09:23:03;;;;;;;2.63;2.43;;;18.10;99.90;;;;;;5053435;28;20454;-79
2021/07/14 09:25:39;;;;;;;2.80;2.43;;;18.10;1.00;;;;;;5039322;28;20461;-78
2021/07/14 09:28:07;;;;;;;2.40;2.20;;;18.30;99.90;;;;;;5043674;28;20482;-78
2021/07/14 09:30:37;;;;;;;3.13;2.30;;;18.40;39.90;;;;;;5036647;28;21443;-78
2021/07/14 09:33:07;;;;;;;2.00;1.90;;;18.40;29.60;;;;;;5043920;28;20886;-79
2021/07/14 09:35:38;;;;;;;2.70;2.13;;;18.50;54.50;;;;;;5034575;28;20951;-79
2021/07/14 09:38:09;;;;;;;2.07;1.97;;;18.60;1.00;;;;;;5055557;28;20565;-79
2021/07/14 09:40:38;;;;;;;2.17;1.80;;;18.60;1.00;;;;;;5037052;28;20467;-77
2021/07/14 09:43:09;;;;;;;2.83;2.47;;;18.70;1.00;;;;;;5041562;28;20444;-80
2021/07/14 09:45:47;;;;;;;3.10;2.10;;;18.80;1.00;;;;;;5039101;28;20984;-78
2021/07/14 09:48:18;;;;;;;2.73;2.53;;;18.70;1.00;;;;;;5036669;28;20472;-80
2021/07/14 09:50:51;;;;;;;1.77;1.67;;;18.80;15.40;;;;;;5044828;28;20460;-80
2021/07/14 09:53:22;;;;;;;3.07;2.20;;;18.90;1.00;;;;;;5037674;28;20506;-79
2021/07/14 09:55:53;;;;;;;6.27;1.83;;;18.90;1.00;;;;;;5037973;28;20811;-78
2021/07/14 09:58:27;;;;;;;2.00;1.90;;;18.90;1.00;;;;;;5039657;28;20472;-80
2021/07/14 10:00:58;;;;;;;2.43;2.20;;;18.90;1.00;;;;;;5038029;28;20517;-78
2021/07/14 10:03:31;;;;;;;2.10;2.00;;;18.90;1.00;;;;;;5040741;28;20539;-78
2021/07/14 10:06:11;;;;;;;3.50;1.87;;;18.90;1.00;;;;;;5036713;28;20544;-77
2021/07/14 10:08:40;;;;;;;2.20;2.00;;;19.00;1.00;;;;;;5042299;28;20472;-78
2021/07/14 10:11:14;;;;;;;2.10;1.47;;;18.90;1.00;;;;;;5041172;28;20452;-77
2021/07/14 10:13:55;;;;;;;1.90;1.80;;;18.90;1.00;;;;;;5038930;28;20970;-77
2021/07/14 10:16:26;;;;;;;1.70;1.60;;;18.90;1.00;;;;;;5039898;28;20831;-78
2021/07/14 10:18:56;;;;;;;3.13;1.70;;;19.00;1.00;;;;;;5044094;28;21034;-77
2021/07/14 10:21:25;;;;;;;1.83;1.73;;;19.10;1.00;;;;;;5043099;28;20514;-78
2021/07/14 10:23:54;;;;;;;1.60;1.47;;;19.20;1.00;;;;;;5038051;28;20855;-78
2021/07/14 10:26:22;;;;;;;2.73;1.50;;;19.20;99.90;;;;;;5033480;28;20877;-78
2021/07/14 10:28:51;;;;;;;2.00;1.90;;;19.20;99.90;;;;;;5034178;28;20646;-79
2021/07/14 10:31:21;;;;;;;1.60;1.50;;;19.20;99.90;;;;;;5037483;28;20953;-79
2021/07/14 10:33:52;;;;;;;1.73;1.40;;;19.20;99.90;;;;;;5034046;28;20455;-79
2021/07/14 10:36:23;;;;;;;1.50;1.40;;;19.20;99.90;;;;;;5036769;28;20488;-79
2021/07/14 10:38:55;;;;;;;1.30;1.20;;;19.30;99.90;;;;;;5040805;28;20486;-78
2021/07/14 10:41:26;;;;;;;1.70;1.20;;;19.50;99.90;;;;;;5035093;28;20447;-79
2021/07/14 10:43:55;;;;;;;3.33;1.30;;;19.50;99.90;;;;;;5048517;28;20463;-79
2021/07/14 10:46:25;;;;;;;1.00;1.00;;;19.70;99.90;;;;;;5036611;28;20499;-79
2021/07/14 10:48:56;;;;;;;2.23;1.33;;;19.80;49.60;;;;;;5035064;28;20562;-79
2021/07/14 10:51:26;;;;;;;1.43;1.10;;;20.00;1.00;;;;;;5038745;28;20495;-77
2021/07/14 10:53:58;;;;;;;1.23;1.13;;;20.00;1.00;;;;;;5037152;28;21449;-76
2021/07/14 10:56:28;;;;;;;1.03;1.03;;;20.10;1.00;;;;;;5035096;28;20827;-78
2021/07/14 10:58:57;;;;;;;1.20;1.10;;;20.20;1.00;;;;;;5035848;28;20487;-78
2021/07/14 11:01:42;;;;;;;1.13;1.07;;;20.30;1.00;;;;;;5036117;28;20452;-77
2021/07/14 11:04:54;;;;;;;1.07;0.80;;;20.40;1.00;;;;;;5033867;28;20458;-78
2021/07/14 11:07:43;;;;;;;2.20;0.90;;;20.40;1.00;;;;;;5038929;28;21043;-78
2021/07/14 11:10:33;;;;;;;1.43;1.00;;;20.50;1.00;;;;;;5032890;28;20449;-77
2021/07/14 11:13:29;;;;;;;1.10;1.00;;;20.40;1.00;;;;;;5034321;28;20456;-77
2021/07/14 11:15:59;;;;;;;1.00;1.00;;;20.30;1.00;;;;;;5034982;28;20474;-79
2021/07/14 11:18:37;;;;;;;1.40;1.20;;;20.40;1.00;;;;;;5036130;28;20515;-79
2021/07/14 11:21:08;;;;;;;1.43;1.30;;;20.50;1.00;;;;;;5033155;28;20463;-77
2021/07/14 11:23:46;;;;;;;1.30;1.20;;;20.40;1.00;;;;;;5030325;28;20457;-78
2021/07/14 11:26:14;;;;;;;1.10;1.00;;;20.20;1.00;;;;;;5032611;28;20511;-77
2021/07/14 11:29:12;;;;;;;0.87;0.80;;;20.10;1.00;;;;;;5034071;28;20542;-76
2021/07/14 11:31:42;;;;;;;1.00;1.00;;;20.10;1.00;;;;;;5038933;28;20456;-77
2021/07/14 11:34:33;;;;;;;3.90;1.10;;;20.10;1.00;;;;;;5053731;28;20472;-77
2021/07/14 11:37:21;;;;;;;1.10;1.00;;;20.00;99.90;;;;;;5034016;28;21065;-77
2021/07/14 11:39:49;;;;;;;1.20;1.20;;;20.00;1.00;;;;;;5034820;28;20511;-79
2021/07/14 11:42:18;;;;;;;1.53;1.10;;;20.10;1.00;;;;;;5033421;28;20481;-77
2021/07/14 11:44:53;;;;;;;1.53;1.23;;;20.10;1.00;;;;;;5033690;28;20460;-78
2021/07/14 11:47:35;;;;;;;1.50;1.40;;;20.30;1.00;;;;;;5035386;28;20490;-77
2021/07/14 11:50:04;;;;;;;1.00;1.00;;;20.40;1.00;;;;;;5033956;28;20436;-77
2021/07/14 11:52:43;;;;;;;1.10;0.93;;;20.40;1.00;;;;;;5037128;28;20456;-77
2021/07/14 11:55:37;;;;;;;2.60;0.90;;;20.30;1.00;;;;;;5036106;28;20462;-76
2021/07/14 11:58:05;;;;;;;0.80;0.80;;;20.30;99.90;;;;;;5038833;28;20557;-77
2021/07/14 12:00:35;;;;;;;1.37;1.10;;;20.30;99.90;;;;;;5031292;28;20471;-78
2021/07/14 12:03:05;;;;;;;1.10;0.87;;;20.40;1.00;;;;;;5031941;28;20514;-77
2021/07/14 12:05:35;;;;;;;0.90;0.90;;;20.50;1.00;;;;;;5029968;28;20459;-77
2021/07/14 12:08:12;;;;;;;1.07;1.00;;;20.70;99.90;;;;;;5036841;28;20474;-76
2021/07/14 12:10:41;;;;;;;1.20;1.10;;;20.80;99.90;;;;;;5033639;28;20440;-76
2021/07/14 12:13:10;;;;;;;0.97;0.97;;;20.70;99.90;;;;;;5033926;28;20467;-78
2021/07/14 12:15:45;;;;;;;0.90;0.90;;;20.70;99.90;;;;;;5033927;28;20452;-77
2021/07/14 12:18:13;;;;;;;1.00;0.90;;;20.80;99.90;;;;;;5040248;28;20464;-79
2021/07/14 12:20:48;;;;;;;2.20;1.00;;;20.80;99.90;;;;;;5031036;28;20708;-75
2021/07/14 12:23:19;;;;;;;1.27;1.00;;;20.80;99.90;;;;;;5040657;28;20854;-77
2021/07/14 12:25:47;;;;;;;0.83;0.83;;;20.90;99.90;;;;;;5036923;28;20483;-77
2021/07/14 12:28:16;;;;;;;0.90;0.90;;;20.90;99.90;;;;;;5043118;28;20494;-78
2021/07/14 12:30:47;;;;;;;2.40;1.00;;;20.90;99.90;;;;;;5035178;28;20465;-77
2021/07/14 12:33:19;;;;;;;1.00;0.90;;;20.90;99.90;;;;;;5031932;28;20447;-77
2021/07/14 12:35:49;;;;;;;0.70;0.70;;;20.90;99.90;;;;;;5036457;28;20972;-78
2021/07/14 12:38:20;;;;;;;0.80;0.80;;;20.90;99.90;;;;;;5038766;28;20468;-80
2021/07/14 12:40:51;;;;;;;1.20;0.70;;;21.00;99.90;;;;;;5036444;28;20472;-77
2021/07/14 12:43:21;;;;;;;0.80;0.80;;;21.00;99.90;;;;;;5034349;28;20462;-79
2021/07/14 12:45:53;;;;;;;0.90;0.90;;;21.10;99.90;;;;;;5043423;28;20466;-78
2021/07/14 12:48:24;;;;;;;1.57;0.90;;;21.10;99.90;;;;;;5053709;28;20823;-78
2021/07/14 12:50:54;;;;;;;1.10;1.00;;;21.20;99.90;;;;;;5034608;28;20946;-79
2021/07/14 12:53:24;;;;;;;0.90;0.90;;;21.20;99.90;;;;;;5036939;28;20450;-77
2021/07/14 12:55:53;;;;;;;0.70;0.70;;;21.20;99.90;;;;;;5036210;28;20464;-82
2021/07/14 12:58:25;;;;;;;1.07;0.70;;;21.00;99.90;;;;;;5039624;28;20469;-80
2021/07/14 13:01:01;;;;;;;1.23;0.90;;;21.20;99.90;;;;;;5040111;28;20824;-78
2021/07/14 13:03:31;;;;;;;0.70;0.70;;;21.20;99.90;;;;;;5040568;28;20463;-80
2021/07/14 13:06:01;;;;;;;0.73;0.73;;;21.20;99.90;;;;;;5044533;28;20489;-78
2021/07/14 13:08:31;;;;;;;1.00;0.80;;;21.00;99.90;;;;;;5042913;28;20475;-80
2021/07/14 13:11:02;;;;;;;0.90;0.90;;;21.00;99.90;;;;;;5043855;28;20457;-81
2021/07/14 13:13:32;;;;;;;1.27;0.80;;;21.10;99.90;;;;;;5037422;28;20513;-77
2021/07/14 13:16:01;;;;;;;0.83;0.83;;;21.10;99.90;;;;;;5050667;28;20457;-79